createdAt,value
2018-09-11T00:00:45.484Z,3.30
2018-09-11T00:11:40.981Z,3.30
2018-09-11T00:22:35.804Z,3.30
2018-09-11T00:33:30.793Z,3.30
2018-09-11T00:44:23.181Z,3.30
2018-09-11T00:55:12.693Z,3.29
2018-09-11T01:06:07.805Z,3.29
2018-09-11T01:17:04.435Z,3.29
2018-09-11T01:28:02.569Z,3.29
2018-09-11T01:39:03.092Z,3.29
2018-09-11T01:50:05.277Z,3.28
2018-09-11T02:01:06.228Z,3.28
2018-09-11T02:12:07.532Z,3.28
2018-09-11T02:23:07.585Z,3.28
2018-09-11T02:33:59.203Z,3.28
2018-09-11T02:44:49.578Z,3.28
2018-09-11T02:55:44.486Z,3.27
2018-09-11T03:06:46.028Z,3.27
2018-09-11T03:17:39.400Z,3.27
2018-09-11T03:28:32.080Z,3.26
2018-09-11T03:39:26.920Z,3.26
2018-09-11T03:50:21.982Z,3.26
2018-09-11T04:01:10.604Z,3.25
2018-09-11T04:12:00.378Z,3.25
2018-09-11T04:22:55.965Z,3.25
2018-09-11T04:33:57.776Z,3.25
2018-09-11T04:45:00.976Z,3.25
2018-09-11T04:56:00.340Z,3.25
2018-09-11T05:07:03.311Z,3.25
2018-09-11T05:18:06.578Z,3.25
2018-09-11T05:29:09.838Z,3.26
2018-09-11T05:40:11.555Z,3.26
2018-09-11T05:51:13.835Z,3.28
2018-09-11T06:02:16.607Z,3.29
2018-09-11T06:13:17.719Z,3.30
2018-09-11T06:24:19.925Z,3.32
2018-09-11T06:35:18.362Z,3.33
2018-09-11T06:46:17.876Z,3.34
2018-09-11T06:57:15.570Z,3.35
2018-09-11T07:08:16.732Z,3.36
2018-09-11T07:19:17.288Z,3.37
2018-09-11T07:30:15.315Z,3.37
2018-09-11T07:41:14.239Z,3.38
2018-09-11T07:52:13.686Z,3.39
2018-09-11T08:03:15.916Z,3.42
2018-09-11T08:14:15.683Z,3.43
2018-09-11T08:25:14.119Z,3.44
2018-09-11T08:36:14.299Z,3.40
2018-09-11T08:47:16.162Z,3.44
2018-09-11T08:58:17.207Z,3.45
2018-09-11T09:09:14.654Z,3.42
2018-09-11T09:20:07.207Z,3.41
2018-09-11T09:31:07.288Z,3.41
2018-09-11T09:42:08.204Z,3.41
2018-09-11T09:53:03.076Z,3.40
2018-09-11T10:04:05.395Z,3.40
2018-09-11T10:15:05.509Z,3.40
2018-09-11T10:26:00.191Z,3.42
2018-09-11T10:36:52.699Z,3.41
2018-09-11T10:47:50.337Z,3.41
2018-09-11T10:58:49.350Z,3.40
2018-09-11T11:09:39.685Z,3.40
2018-09-11T11:20:36.929Z,3.42
2018-09-11T11:31:39.024Z,3.41
2018-09-11T11:42:36.916Z,3.40
2018-09-11T11:53:28.941Z,3.40
2018-09-11T12:04:29.862Z,3.40
2018-09-11T12:15:25.609Z,3.39
2018-09-11T12:26:24.769Z,3.43
2018-09-11T12:37:22.851Z,3.41
2018-09-11T12:48:04.990Z,3.41
2018-09-11T12:58:48.633Z,3.41
2018-09-11T13:09:51.973Z,3.40
2018-09-11T13:20:39.257Z,3.40
2018-09-11T13:31:19.044Z,3.40
2018-09-11T13:41:56.471Z,3.40
2018-09-11T13:52:40.491Z,3.40
2018-09-11T14:03:23.055Z,3.43
2018-09-11T14:14:07.059Z,3.42
2018-09-11T14:25:10.375Z,3.42
2018-09-11T14:36:08.195Z,3.41
2018-09-11T14:47:06.014Z,3.41
2018-09-11T14:58:04.312Z,3.40
2018-09-11T15:08:59.866Z,3.43
2018-09-11T15:19:44.570Z,3.41
2018-09-11T15:30:41.436Z,3.41
2018-09-11T15:41:41.099Z,3.40
2018-09-11T15:52:36.956Z,3.43
2018-09-11T16:03:34.679Z,3.44
2018-09-11T16:14:30.056Z,3.44
2018-09-11T16:25:27.172Z,3.43
2018-09-11T16:36:25.939Z,3.43
2018-09-11T16:47:23.300Z,3.43
2018-09-11T16:58:19.316Z,3.42
2018-09-11T17:09:16.329Z,3.41
2018-09-11T17:20:08.711Z,3.40
2018-09-11T17:31:06.415Z,3.40
2018-09-11T17:42:03.671Z,3.39
2018-09-11T17:52:51.992Z,3.39
2018-09-11T18:03:52.466Z,3.39
2018-09-11T18:14:51.822Z,3.39
2018-09-11T18:25:40.048Z,3.38
2018-09-11T18:36:40.574Z,3.38
2018-09-11T18:47:36.881Z,3.37
2018-09-11T18:58:32.445Z,3.37
2018-09-11T19:09:28.308Z,3.37
2018-09-11T19:20:28.513Z,3.36
2018-09-11T19:31:29.991Z,3.36
2018-09-11T19:42:30.210Z,3.36
2018-09-11T19:53:28.991Z,3.36
2018-09-11T20:04:27.767Z,3.35
2018-09-11T20:15:27.704Z,3.35
2018-09-11T20:26:28.968Z,3.35
2018-09-11T20:37:28.779Z,3.34
2018-09-11T20:48:26.224Z,3.34
2018-09-11T20:59:27.279Z,3.34
2018-09-11T21:10:21.695Z,3.34
2018-09-11T21:21:22.702Z,3.34
2018-09-11T21:32:22.897Z,3.34
2018-09-11T21:43:20.492Z,3.33
2018-09-11T21:54:22.583Z,3.33
2018-09-11T22:05:24.102Z,3.33
2018-09-11T22:16:20.823Z,3.33
2018-09-11T22:27:23.164Z,3.33
2018-09-11T22:38:22.075Z,3.32
2018-09-11T22:49:22.521Z,3.32
2018-09-11T23:00:23.072Z,3.32
2018-09-11T23:11:21.742Z,3.32
2018-09-11T23:22:22.521Z,3.32
2018-09-11T23:33:23.407Z,3.31
2018-09-11T23:44:24.566Z,3.31
2018-09-11T23:55:27.112Z,3.31
